sensor_id;sensor_type;location;lat;lon;timestamp;pressure;altitude;pressure_sealevel;temperature;humidity
28935;BME280;16044;52.726;-2.108;2023-11-21T00:00:32;100663.19;;;9.31;100.00
28935;BME280;16044;52.726;-2.108;2023-11-21T00:03:02;100660.84;;;9.36;100.00
28935;BME280;16044;52.726;-2.108;2023-11-21T00:05:36;100659.81;;;9.37;100.00
28935;BME280;16044;52.726;-2.108;2023-11-21T00:08:08;100668.63;;;9.39;100.00
28935;BME280;16044;52.726;-2.108;2023-11-21T00:10:38;100667.28;;;9.43;100.00
28935;BME280;16044;52.726;-2.108;2023-11-21T00:13:09;100678.09;;;9.43;100.00
28935;BME280;16044;52.726;-2.108;2023-11-21T00:15:39;100673.38;;;9.45;100.00
28935;BME280;16044;52.726;-2.108;2023-11-21T00:18:10;100686.56;;;9.48;100.00
28935;BME280;16044;52.726;-2.108;2023-11-21T00:20:43;100692.81;;;9.49;100.00
28935;BME280;16044;52.726;-2.108;2023-11-21T00:23:14;100687.78;;;9.54;100.00
28935;BME280;16044;52.726;-2.108;2023-11-21T00:25:45;100693.53;;;9.51;100.00
28935;BME280;16044;52.726;-2.108;2023-11-21T00:28:15;100704.50;;;9.49;100.00
28935;BME280;16044;52.726;-2.108;2023-11-21T00:30:46;100700.31;;;9.55;100.00
28935;BME280;16044;52.726;-2.108;2023-11-21T00:33:16;100696.72;;;9.54;100.00
28935;BME280;16044;52.726;-2.108;2023-11-21T00:35:49;100703.84;;;9.55;100.00
28935;BME280;16044;52.726;-2.108;2023-11-21T00:38:19;100709.63;;;9.61;100.00
28935;BME280;16044;52.726;-2.108;2023-11-21T00:40:50;100715.19;;;9.59;100.00
28935;BME280;16044;52.726;-2.108;2023-11-21T00:43:23;100723.47;;;9.57;100.00
28935;BME280;16044;52.726;-2.108;2023-11-21T00:45:53;100728.72;;;9.59;100.00
28935;BME280;16044;52.726;-2.108;2023-11-21T00:48:24;100733.31;;;9.59;100.00
28935;BME280;16044;52.726;-2.108;2023-11-21T00:50:56;100730.91;;;9.55;100.00
28935;BME280;16044;52.726;-2.108;2023-11-21T00:53:27;100733.63;;;9.55;100.00
28935;BME280;16044;52.726;-2.108;2023-11-21T00:55:58;100734.63;;;9.54;100.00
28935;BME280;16044;52.726;-2.108;2023-11-21T00:58:29;100735.66;;;9.53;100.00
28935;BME280;16044;52.726;-2.108;2023-11-21T01:00:59;100736.63;;;9.52;100.00
28935;BME280;16044;52.726;-2.108;2023-11-21T01:03:30;100738.66;;;9.50;100.00
28935;BME280;16044;52.726;-2.108;2023-11-21T01:06:03;100753.06;;;9.51;100.00
28935;BME280;16044;52.726;-2.108;2023-11-21T01:08:34;100752.72;;;9.54;100.00
28935;BME280;16044;52.726;-2.108;2023-11-21T01:11:05;100759.50;;;9.58;100.00
28935;BME280;16044;52.726;-2.108;2023-11-21T01:13:39;100763.38;;;9.55;100.00
28935;BME280;16044;52.726;-2.108;2023-11-21T01:16:10;100765.44;;;9.62;100.00
28935;BME280;16044;52.726;-2.108;2023-11-21T01:18:40;100765.44;;;9.62;100.00
28935;BME280;16044;52.726;-2.108;2023-11-21T01:21:13;100773.91;;;9.59;100.00
28935;BME280;16044;52.726;-2.108;2023-11-21T01:23:43;100783.16;;;9.56;100.00
28935;BME280;16044;52.726;-2.108;2023-11-21T01:26:14;100794.88;;;9.56;100.00
28935;BME280;16044;52.726;-2.108;2023-11-21T01:28:44;100802.97;;;9.56;100.00
28935;BME280;16044;52.726;-2.108;2023-11-21T01:31:16;100809.69;;;9.52;100.00
28935;BME280;16044;52.726;-2.108;2023-11-21T01:33:47;100809.19;;;9.49;100.00
28935;BME280;16044;52.726;-2.108;2023-11-21T01:36:20;100831.69;;;9.49;100.00
28935;BME280;16044;52.726;-2.108;2023-11-21T01:38:51;100828.47;;;9.46;100.00
28935;BME280;16044;52.726;-2.108;2023-11-21T01:41:21;100833.72;;;9.47;100.00
28935;BME280;16044;52.726;-2.108;2023-11-21T01:43:54;100828.63;;;9.44;100.00
28935;BME280;16044;52.726;-2.108;2023-11-21T01:46:25;100845.34;;;9.40;100.00
28935;BME280;16044;52.726;-2.108;2023-11-21T01:48:56;100855.50;;;9.46;100.00
28935;BME280;16044;52.726;-2.108;2023-11-21T01:51:29;100857.88;;;9.49;100.00
28935;BME280;16044;52.726;-2.108;2023-11-21T01:54:00;100869.69;;;9.40;100.00
28935;BME280;16044;52.726;-2.108;2023-11-21T01:56:44;100871.91;;;9.44;100.00
28935;BME280;16044;52.726;-2.108;2023-11-21T01:59:21;100872.22;;;9.41;100.00
28935;BME280;16044;52.726;-2.108;2023-11-21T02:01:51;100876.94;;;9.39;100.00
28935;BME280;16044;52.726;-2.108;2023-11-21T02:04:23;100872.84;;;9.35;100.00
28935;BME280;16044;52.726;-2.108;2023-11-21T02:06:57;100880.59;;;9.30;100.00
28935;BME280;16044;52.726;-2.108;2023-11-21T02:09:27;100883.00;;;9.33;100.00
28935;BME280;16044;52.726;-2.108;2023-11-21T02:11:59;100881.13;;;9.33;100.00
28935;BME280;16044;52.726;-2.108;2023-11-21T02:14:30;100893.13;;;9.31;100.00
28935;BME280;16044;52.726;-2.108;2023-11-21T02:17:00;100888.56;;;9.31;100.00
28935;BME280;16044;52.726;-2.108;2023-11-21T02:19:31;100885.16;;;9.29;100.00
28935;BME280;16044;52.726;-2.108;2023-11-21T02:22:04;100882.25;;;9.23;100.00
28935;BME280;16044;52.726;-2.108;2023-11-21T02:24:37;100880.41;;;9.23;100.00
28935;BME280;16044;52.726;-2.108;2023-11-21T02:27:07;100876.16;;;9.21;100.00
28935;BME280;16044;52.726;-2.108;2023-11-21T02:29:38;100883.25;;;9.22;100.00
28935;BME280;16044;52.726;-2.108;2023-11-21T02:32:08;100879.84;;;9.20;100.00
28935;BME280;16044;52.726;-2.108;2023-11-21T02:34:38;100888.97;;;9.18;100.00
28935;BME280;16044;52.726;-2.108;2023-11-21T02:37:10;100880.66;;;9.12;100.00
28935;BME280;16044;52.726;-2.108;2023-11-21T02:39:43;100889.31;;;9.15;100.00
28935;BME280;16044;52.726;-2.108;2023-11-21T02:42:14;100898.41;;;9.14;100.00
28935;BME280;16044;52.726;-2.108;2023-11-21T02:44:44;100904.69;;;9.15;100.00
28935;BME280;16044;52.726;-2.108;2023-11-21T02:47:14;100919.50;;;9.11;100.00
28935;BME280;16044;52.726;-2.108;2023-11-21T02:49:45;100924.06;;;9.10;100.00
28935;BME280;16044;52.726;-2.108;2023-11-21T02:52:15;100928.78;;;9.08;100.00
28935;BME280;16044;52.726;-2.108;2023-11-21T02:54:48;100922.84;;;9.05;100.00
28935;BME280;16044;52.726;-2.108;2023-11-21T02:57:19;100920.69;;;9.08;100.00
28935;BME280;16044;52.726;-2.108;2023-11-21T02:59:50;100928.41;;;9.03;100.00
28935;BME280;16044;52.726;-2.108;2023-11-21T03:02:20;100932.13;;;9.02;100.00
28935;BME280;16044;52.726;-2.108;2023-11-21T03:04:51;100934.13;;;9.00;100.00
28935;BME280;16044;52.726;-2.108;2023-11-21T03:07:21;100939.22;;;9.03;100.00
28935;BME280;16044;52.726;-2.108;2023-11-21T03:09:55;100946.28;;;8.96;100.00
28935;BME280;16044;52.726;-2.108;2023-11-21T03:12:25;100957.09;;;8.96;100.00
28935;BME280;16044;52.726;-2.108;2023-11-21T03:14:56;100957.69;;;8.90;100.00
28935;BME280;16044;52.726;-2.108;2023-11-21T03:17:26;100953.84;;;8.92;100.00
28935;BME280;16044;52.726;-2.108;2023-11-21T03:19:56;100966.13;;;8.87;100.00
28935;BME280;16044;52.726;-2.108;2023-11-21T03:22:27;100968.66;;;8.88;100.00
28935;BME280;16044;52.726;-2.108;2023-11-21T03:25:00;100972.91;;;8.91;100.00
28935;BME280;16044;52.726;-2.108;2023-11-21T03:27:31;100979.00;;;8.93;100.00
28935;BME280;16044;52.726;-2.108;2023-11-21T03:30:02;100963.25;;;8.88;100.00
28935;BME280;16044;52.726;-2.108;2023-11-21T03:32:33;100968.50;;;8.90;100.00
28935;BME280;16044;52.726;-2.108;2023-11-21T03:35:05;100969.38;;;8.90;100.00
28935;BME280;16044;52.726;-2.108;2023-11-21T03:37:36;100971.81;;;8.84;100.00
28935;BME280;16044;52.726;-2.108;2023-11-21T03:40:11;100970.66;;;8.86;100.00
28935;BME280;16044;52.726;-2.108;2023-11-21T03:42:42;100972.66;;;8.84;100.00
28935;BME280;16044;52.726;-2.108;2023-11-21T03:45:12;100980.63;;;8.86;100.00
28935;BME280;16044;52.726;-2.108;2023-11-21T03:47:43;100988.59;;;8.87;100.00
28935;BME280;16044;52.726;-2.108;2023-11-21T03:50:14;101002.94;;;8.88;100.00
28935;BME280;16044;52.726;-2.108;2023-11-21T03:52:44;101000.25;;;8.88;100.00
28935;BME280;16044;52.726;-2.108;2023-11-21T03:55:17;101005.09;;;8.84;100.00
28935;BME280;16044;52.726;-2.108;2023-11-21T03:57:47;101006.13;;;8.83;100.00
28935;BME280;16044;52.726;-2.108;2023-11-21T04:00:18;101014.94;;;8.85;100.00
28935;BME280;16044;52.726;-2.108;2023-11-21T04:02:49;101013.22;;;8.84;100.00
28935;BME280;16044;52.726;-2.108;2023-11-21T04:05:20;101018.47;;;8.86;100.00
28935;BME280;16044;52.726;-2.108;2023-11-21T04:07:51;101024.16;;;8.83;100.00
28935;BME280;16044;52.726;-2.108;2023-11-21T04:10:24;101024.34;;;8.81;100.00
28935;BME280;16044;52.726;-2.108;2023-11-21T04:12:56;101012.38;;;8.84;100.00
28935;BME280;16044;52.726;-2.108;2023-11-21T04:15:27;101016.25;;;8.81;100.00
28935;BME280;16044;52.726;-2.108;2023-11-21T04:17:57;101018.75;;;8.83;100.00
28935;BME280;16044;52.726;-2.108;2023-11-21T04:20:28;101029.63;;;8.73;100.00
28935;BME280;16044;52.726;-2.108;2023-11-21T04:22:58;101024.34;;;8.81;100.00
28935;BME280;16044;52.726;-2.108;2023-11-21T04:25:31;101031.59;;;8.81;100.00
28935;BME280;16044;52.726;-2.108;2023-11-21T04:28:01;101035.59;;;8.76;100.00
28935;BME280;16044;52.726;-2.108;2023-11-21T04:30:32;101040.44;;;8.73;100.00
28935;BME280;16044;52.726;-2.108;2023-11-21T04:33:02;101037.91;;;8.71;100.00
28935;BME280;16044;52.726;-2.108;2023-11-21T04:35:32;101034.50;;;8.69;100.00
28935;BME280;16044;52.726;-2.108;2023-11-21T04:38:03;101039.63;;;8.72;100.00
28935;BME280;16044;52.726;-2.108;2023-11-21T04:40:36;101055.53;;;8.75;100.00
28935;BME280;16044;52.726;-2.108;2023-11-21T04:43:06;101052.97;;;8.74;100.00
28935;BME280;16044;52.726;-2.108;2023-11-21T04:45:37;101062.78;;;8.75;100.00
28935;BME280;16044;52.726;-2.108;2023-11-21T04:48:08;101070.03;;;8.74;100.00
28935;BME280;16044;52.726;-2.108;2023-11-21T04:50:38;101070.31;;;8.71;100.00
28935;BME280;16044;52.726;-2.108;2023-11-21T04:53:09;101087.41;;;8.72;100.00
28935;BME280;16044;52.726;-2.108;2023-11-21T04:55:44;101092.19;;;8.60;100.00
28935;BME280;16044;52.726;-2.108;2023-11-21T04:58:15;101098.97;;;8.64;100.00
28935;BME280;16044;52.726;-2.108;2023-11-21T05:00:48;101102.53;;;8.65;100.00
28935;BME280;16044;52.726;-2.108;2023-11-21T05:03:16;101103.69;;;8.62;100.00
28935;BME280;16044;52.726;-2.108;2023-11-21T05:05:47;101100.09;;;8.62;100.00
28935;BME280;16044;52.726;-2.108;2023-11-21T05:08:18;101106.53;;;8.61;100.00
28935;BME280;16044;52.726;-2.108;2023-11-21T05:10:52;101110.91;;;8.62;100.00
28935;BME280;16044;52.726;-2.108;2023-11-21T05:13:22;101113.25;;;8.56;100.00
28935;BME280;16044;52.726;-2.108;2023-11-21T05:15:55;101117.94;;;8.54;100.00
28935;BME280;16044;52.726;-2.108;2023-11-21T05:18:26;101136.13;;;8.52;100.00
28935;BME280;16044;52.726;-2.108;2023-11-21T05:20:57;101123.91;;;8.48;100.00
28935;BME280;16044;52.726;-2.108;2023-11-21T05:23:27;101125.63;;;8.49;100.00
28935;BME280;16044;52.726;-2.108;2023-11-21T05:26:00;101130.63;;;8.44;100.00
28935;BME280;16044;52.726;-2.108;2023-11-21T05:28:31;101136.16;;;8.43;100.00
28935;BME280;16044;52.726;-2.108;2023-11-21T05:31:01;101120.22;;;8.39;100.00
28935;BME280;16044;52.726;-2.108;2023-11-21T05:33:42;101141.66;;;8.41;100.00
28935;BME280;16044;52.726;-2.108;2023-11-21T05:36:12;101132.72;;;8.40;100.00
28935;BME280;16044;52.726;-2.108;2023-11-21T05:38:43;101129.31;;;8.38;100.00
28935;BME280;16044;52.726;-2.108;2023-11-21T05:41:15;101145.53;;;8.38;100.00
28935;BME280;16044;52.726;-2.108;2023-11-21T05:43:46;101144.72;;;8.28;100.00
28935;BME280;16044;52.726;-2.108;2023-11-21T05:46:16;101143.00;;;8.27;100.00
28935;BME280;16044;52.726;-2.108;2023-11-21T05:48:47;101150.69;;;8.32;100.00
28935;BME280;16044;52.726;-2.108;2023-11-21T05:51:17;101144.72;;;8.28;100.00
28935;BME280;16044;52.726;-2.108;2023-11-21T05:53:48;101147.56;;;8.27;100.00
28935;BME280;16044;52.726;-2.108;2023-11-21T05:56:20;101157.38;;;8.18;100.00
28935;BME280;16044;52.726;-2.108;2023-11-21T05:58:51;101161.66;;;8.20;100.00
28935;BME280;16044;52.726;-2.108;2023-11-21T06:01:22;101164.16;;;8.22;100.00
28935;BME280;16044;52.726;-2.108;2023-11-21T06:03:55;101174.00;;;8.23;100.00
28935;BME280;16044;52.726;-2.108;2023-11-21T06:06:26;101179.69;;;8.20;100.00
28935;BME280;16044;52.726;-2.108;2023-11-21T06:08:56;101182.09;;;8.23;100.00
28935;BME280;16044;52.726;-2.108;2023-11-21T06:11:29;101191.34;;;8.20;100.00
28935;BME280;16044;52.726;-2.108;2023-11-21T06:13:59;101205.69;;;8.21;100.00
28935;BME280;16044;52.726;-2.108;2023-11-21T06:16:30;101191.34;;;8.20;100.00
28935;BME280;16044;52.726;-2.108;2023-11-21T06:19:00;101200.28;;;8.21;100.00
28935;BME280;16044;52.726;-2.108;2023-11-21T06:21:32;101212.97;;;8.20;100.00
28935;BME280;16044;52.726;-2.108;2023-11-21T06:24:03;101224.03;;;8.17;100.00
28935;BME280;16044;52.726;-2.108;2023-11-21T06:26:37;101217.78;;;8.17;100.00
28935;BME280;16044;52.726;-2.108;2023-11-21T06:29:08;101222.19;;;8.18;100.00
28935;BME280;16044;52.726;-2.108;2023-11-21T06:31:38;101215.09;;;8.17;100.00
28935;BME280;16044;52.726;-2.108;2023-11-21T06:34:09;101223.31;;;8.15;100.00
28935;BME280;16044;52.726;-2.108;2023-11-21T06:36:39;101233.41;;;8.13;100.00
28935;BME280;16044;52.726;-2.108;2023-11-21T06:39:10;101235.53;;;8.19;100.00
28935;BME280;16044;52.726;-2.108;2023-11-21T06:41:44;101244.78;;;8.17;100.00
28935;BME280;16044;52.726;-2.108;2023-11-21T06:44:15;101243.78;;;8.18;100.00
28935;BME280;16044;52.726;-2.108;2023-11-21T06:46:46;101247.06;;;8.12;100.00
28935;BME280;16044;52.726;-2.108;2023-11-21T06:49:17;101237.69;;;8.06;100.00
28935;BME280;16044;52.726;-2.108;2023-11-21T06:51:47;101245.06;;;8.14;100.00
28935;BME280;16044;52.726;-2.108;2023-11-21T06:54:18;101250.03;;;8.09;100.00
28935;BME280;16044;52.726;-2.108;2023-11-21T06:56:51;101248.22;;;8.09;100.00
28935;BME280;16044;52.726;-2.108;2023-11-21T06:59:23;101252.16;;;8.05;100.00
28935;BME280;16044;52.726;-2.108;2023-11-21T07:01:53;101268.22;;;8.07;100.00
28935;BME280;16044;52.726;-2.108;2023-11-21T07:04:24;101268.22;;;8.07;100.00
28935;BME280;16044;52.726;-2.108;2023-11-21T07:06:55;101268.53;;;8.04;100.00
28935;BME280;16044;52.726;-2.108;2023-11-21T07:09:26;101265.81;;;8.04;100.00
28935;BME280;16044;52.726;-2.108;2023-11-21T07:11:59;101270.78;;;8.08;100.00
28935;BME280;16044;52.726;-2.108;2023-11-21T07:14:30;101285.44;;;8.06;100.00
28935;BME280;16044;52.726;-2.108;2023-11-21T07:17:01;101290.53;;;8.09;100.00
28935;BME280;16044;52.726;-2.108;2023-11-21T07:19:31;101301.91;;;8.03;100.00
28935;BME280;16044;52.726;-2.108;2023-11-21T07:22:03;101303.31;;;8.07;100.00
28935;BME280;16044;52.726;-2.108;2023-11-21T07:24:33;101307.16;;;8.04;100.00
28935;BME280;16044;52.726;-2.108;2023-11-21T07:27:06;101308.44;;;8.00;100.00
28935;BME280;16044;52.726;-2.108;2023-11-21T07:29:37;101318.38;;;7.99;100.00
28935;BME280;16044;52.726;-2.108;2023-11-21T07:32:07;101313.84;;;8.00;100.00
28935;BME280;16044;52.726;-2.108;2023-11-21T07:34:38;101321.22;;;7.98;100.00
28935;BME280;16044;52.726;-2.108;2023-11-21T07:37:11;101326.63;;;7.98;100.00
28935;BME280;16044;52.726;-2.108;2023-11-21T07:39:42;101333.59;;;8.00;100.00
28935;BME280;16044;52.726;-2.108;2023-11-21T07:42:16;101330.19;;;7.98;100.00
28935;BME280;16044;52.726;-2.108;2023-11-21T07:44:46;101332.16;;;7.96;100.00
28935;BME280;16044;52.726;-2.108;2023-11-21T07:47:17;101345.53;;;7.98;100.00
28935;BME280;16044;52.726;-2.108;2023-11-21T07:49:47;101356.34;;;7.98;100.00
28935;BME280;16044;52.726;-2.108;2023-11-21T07:52:18;101347.94;;;8.01;100.00
28935;BME280;16044;52.726;-2.108;2023-11-21T07:54:48;101365.28;;;7.98;100.00
28935;BME280;16044;52.726;-2.108;2023-11-21T07:57:21;101363.28;;;8.00;100.00
28935;BME280;16044;52.726;-2.108;2023-11-21T08:03:33;101360.69;;;7.89;100.00
28935;BME280;16044;52.726;-2.108;2023-11-21T08:06:04;101359.88;;;7.98;100.00
28935;BME280;16044;52.726;-2.108;2023-11-21T08:08:35;101362.41;;;7.90;100.00
28935;BME280;16044;52.726;-2.108;2023-11-21T08:11:06;101366.25;;;7.97;100.00
28935;BME280;16044;52.726;-2.108;2023-11-21T08:13:39;101374.94;;;8.01;100.00
28935;BME280;16044;52.726;-2.108;2023-11-21T08:16:10;101380.03;;;7.94;100.00
28935;BME280;16044;52.726;-2.108;2023-11-21T08:18:41;101385.34;;;8.06;100.00
28935;BME280;16044;52.726;-2.108;2023-11-21T08:21:12;101391.00;;;8.03;100.00
28935;BME280;16044;52.726;-2.108;2023-11-21T08:23:42;101404.94;;;8.08;100.00
28935;BME280;16044;52.726;-2.108;2023-11-21T08:26:16;101403.69;;;8.12;100.00
28935;BME280;16044;52.726;-2.108;2023-11-21T08:28:49;101411.50;;;8.15;100.00
28935;BME280;16044;52.726;-2.108;2023-11-21T08:31:24;101415.63;;;8.19;100.00
28935;BME280;16044;52.726;-2.108;2023-11-21T08:33:55;101426.44;;;8.19;100.00
28935;BME280;16044;52.726;-2.108;2023-11-21T08:36:27;101432.28;;;8.24;100.00
28935;BME280;16044;52.726;-2.108;2023-11-21T08:38:58;101448.91;;;8.29;100.00
28935;BME280;16044;52.726;-2.108;2023-11-21T08:41:29;101447.22;;;8.28;100.00
28935;BME280;16044;52.726;-2.108;2023-11-21T08:44:02;101452.31;;;8.31;100.00
28935;BME280;16044;52.726;-2.108;2023-11-21T08:46:33;101448.34;;;8.35;100.00
28935;BME280;16044;52.726;-2.108;2023-11-21T08:49:05;101452.66;;;8.38;100.00
28935;BME280;16044;52.726;-2.108;2023-11-21T08:51:35;101463.44;;;8.38;100.00
28935;BME280;16044;52.726;-2.108;2023-11-21T08:54:06;101470.19;;;8.44;100.00
28935;BME280;16044;52.726;-2.108;2023-11-21T08:56:36;101464.06;;;8.42;100.00
28935;BME280;16044;52.726;-2.108;2023-11-21T08:59:09;101463.06;;;8.43;100.00
28935;BME280;16044;52.726;-2.108;2023-11-21T09:01:42;101472.44;;;8.48;100.00
28935;BME280;16044;52.726;-2.108;2023-11-21T09:04:12;101485.13;;;8.48;100.00
28935;BME280;16044;52.726;-2.108;2023-11-21T09:06:43;101486.53;;;8.52;100.00
28935;BME280;16044;52.726;-2.108;2023-11-21T09:09:13;101487.97;;;8.56;100.00
28935;BME280;16044;52.726;-2.108;2023-11-21T09:11:43;101491.13;;;8.61;100.00
28935;BME280;16044;52.726;-2.108;2023-11-21T09:14:18;101492.84;;;8.62;100.00
28935;BME280;16044;52.726;-2.108;2023-11-21T09:16:49;101493.38;;;8.66;100.00
28935;BME280;16044;52.726;-2.108;2023-11-21T09:19:19;101501.34;;;8.67;100.00
28935;BME280;16044;52.726;-2.108;2023-11-21T09:21:50;101499.38;;;8.69;100.00
28935;BME280;16044;52.726;-2.108;2023-11-21T09:24:21;101503.09;;;8.68;100.00
28935;BME280;16044;52.726;-2.108;2023-11-21T09:26:52;101519.16;;;8.70;100.00
28935;BME280;16044;52.726;-2.108;2023-11-21T09:29:25;101519.31;;;8.68;100.00
28935;BME280;16044;52.726;-2.108;2023-11-21T09:31:56;101511.78;;;8.72;100.00
28935;BME280;16044;52.726;-2.108;2023-11-21T09:34:27;101507.66;;;8.68;100.00
28935;BME280;16044;52.726;-2.108;2023-11-21T09:36:57;101509.19;;;8.70;100.00
28935;BME280;16044;52.726;-2.108;2023-11-21T09:39:29;101522.28;;;8.75;100.00
28935;BME280;16044;52.726;-2.108;2023-11-21T09:42:10;101527.28;;;8.70;100.00
28935;BME280;16044;52.726;-2.108;2023-11-21T09:44:54;101531.53;;;8.72;100.00
28935;BME280;16044;52.726;-2.108;2023-11-21T09:47:29;101520.47;;;8.75;100.00
28935;BME280;16044;52.726;-2.108;2023-11-21T09:50:01;101528.97;;;8.81;100.00
28935;BME280;16044;52.726;-2.108;2023-11-21T09:52:39;101530.72;;;8.82;100.00
28935;BME280;16044;52.726;-2.108;2023-11-21T09:55:19;101536.38;;;8.78;100.00
28935;BME280;16044;52.726;-2.108;2023-11-21T09:57:50;101532.41;;;8.83;100.00
28935;BME280;16044;52.726;-2.108;2023-11-21T10:00:25;101529.56;;;8.84;100.00
28935;BME280;16044;52.726;-2.108;2023-11-21T10:02:56;101539.25;;;8.87;100.00
28935;BME280;16044;52.726;-2.108;2023-11-21T10:05:29;101530.72;;;8.91;100.00
28935;BME280;16044;52.726;-2.108;2023-11-21T10:08:01;101545.53;;;8.97;100.00
28935;BME280;16044;52.726;-2.108;2023-11-21T10:10:35;101554.22;;;9.01;100.00
28935;BME280;16044;52.726;-2.108;2023-11-21T10:13:08;101549.66;;;9.01;100.00
28935;BME280;16044;52.726;-2.108;2023-11-21T10:15:49;101558.34;;;9.05;100.00
28935;BME280;16044;52.726;-2.108;2023-11-21T10:18:20;101561.63;;;9.08;100.00
28935;BME280;16044;52.726;-2.108;2023-11-21T10:20:54;101555.50;;;9.06;100.00
28935;BME280;16044;52.726;-2.108;2023-11-21T10:23:27;101569.47;;;9.11;100.00
28935;BME280;16044;52.726;-2.108;2023-11-21T10:25:58;101571.47;;;9.09;100.00
28935;BME280;16044;52.726;-2.108;2023-11-21T10:28:40;101573.16;;;9.10;100.00
28935;BME280;16044;52.726;-2.108;2023-11-21T10:31:13;101580.28;;;9.11;100.00
28935;BME280;16044;52.726;-2.108;2023-11-21T10:33:44;101593.38;;;9.06;100.00
28935;BME280;16044;52.726;-2.108;2023-11-21T10:36:25;101600.47;;;9.07;100.00
28935;BME280;16044;52.726;-2.108;2023-11-21T10:38:56;101614.44;;;9.12;100.00
28935;BME280;16044;52.726;-2.108;2023-11-21T10:41:26;101605.34;;;9.13;100.00
28935;BME280;16044;52.726;-2.108;2023-11-21T10:43:57;101608.19;;;9.12;100.00
28935;BME280;16044;52.726;-2.108;2023-11-21T10:46:30;101608.75;;;9.15;100.00
28935;BME280;16044;52.726;-2.108;2023-11-21T10:49:01;101606.47;;;9.11;100.00
28935;BME280;16044;52.726;-2.108;2023-11-21T10:51:31;101607.75;;;9.16;100.00
28935;BME280;16044;52.726;-2.108;2023-11-21T10:54:02;101606.78;;;9.17;100.00
28935;BME280;16044;52.726;-2.108;2023-11-21T10:56:33;101612.19;;;9.27;100.00
28935;BME280;16044;52.726;-2.108;2023-11-21T10:59:09;101615.47;;;9.31;100.00
28935;BME280;16044;52.726;-2.108;2023-11-21T11:01:45;101618.88;;;9.33;100.00
28935;BME280;16044;52.726;-2.108;2023-11-21T11:04:18;101621.72;;;9.41;100.00
28935;BME280;16044;52.726;-2.108;2023-11-21T11:06:57;101628.16;;;9.40;100.00
28935;BME280;16044;52.726;-2.108;2023-11-21T11:09:32;101622.75;;;9.40;100.00
28935;BME280;16044;52.726;-2.108;2023-11-21T11:12:04;101621.91;;;9.40;100.00
28935;BME280;16044;52.726;-2.108;2023-11-21T11:14:35;101630.56;;;9.43;100.00
28935;BME280;16044;52.726;-2.108;2023-11-21T11:17:09;101627.72;;;9.35;100.00
28935;BME280;16044;52.726;-2.108;2023-11-21T11:19:40;101629.44;;;9.36;100.00
28935;BME280;16044;52.726;-2.108;2023-11-21T11:22:21;101634.13;;;9.34;100.00
28935;BME280;16044;52.726;-2.108;2023-11-21T11:25:25;101634.84;;;9.36;100.00
28935;BME280;16044;52.726;-2.108;2023-11-21T11:28:06;101629.56;;;9.34;100.00
28935;BME280;16044;52.726;-2.108;2023-11-21T11:30:50;101625.84;;;9.35;100.00
28935;BME280;16044;52.726;-2.108;2023-11-21T11:33:38;101622.59;;;9.42;100.00
28935;BME280;16044;52.726;-2.108;2023-11-21T11:36:17;101622.75;;;9.40;100.00
28935;BME280;16044;52.726;-2.108;2023-11-21T11:38:54;101639.69;;;9.42;100.00
28935;BME280;16044;52.726;-2.108;2023-11-21T11:41:26;101637.69;;;9.34;100.00
28935;BME280;16044;52.726;-2.108;2023-11-21T11:44:00;101644.66;;;9.37;100.00
28935;BME280;16044;52.726;-2.108;2023-11-21T11:46:41;101643.53;;;9.40;100.00
28935;BME280;16044;52.726;-2.108;2023-11-21T11:49:27;101649.09;;;9.38;100.00
28935;BME280;16044;52.726;-2.108;2023-11-21T11:55:03;101657.22;;;9.48;100.00
28935;BME280;16044;52.726;-2.108;2023-11-21T11:57:37;101646.66;;;9.54;100.00
28935;BME280;16044;52.726;-2.108;2023-11-21T12:00:15;101644.84;;;9.65;100.00
28935;BME280;16044;52.726;-2.108;2023-11-21T12:02:49;101649.97;;;9.68;100.00
28935;BME280;16044;52.726;-2.108;2023-11-21T12:05:23;101669.91;;;9.67;100.00
28935;BME280;16044;52.726;-2.108;2023-11-21T12:07:55;101679.31;;;9.72;100.00
28935;BME280;16044;52.726;-2.108;2023-11-21T12:10:28;101679.88;;;9.76;100.00
28935;BME280;16044;52.726;-2.108;2023-11-21T12:13:01;101683.44;;;9.76;100.00
28935;BME280;16044;52.726;-2.108;2023-11-21T12:15:34;101674.47;;;9.76;100.00
28935;BME280;16044;52.726;-2.108;2023-11-21T12:18:07;101681.03;;;9.73;100.00
28935;BME280;16044;52.726;-2.108;2023-11-21T12:20:40;101686.16;;;9.76;100.00
28935;BME280;16044;52.726;-2.108;2023-11-21T12:23:14;101689.16;;;9.73;100.00
28935;BME280;16044;52.726;-2.108;2023-11-21T12:25:45;101695.44;;;9.74;100.00
28935;BME280;16044;52.726;-2.108;2023-11-21T12:28:15;101692.28;;;9.69;100.00
28935;BME280;16044;52.726;-2.108;2023-11-21T12:30:45;101689.00;;;9.65;100.00
28935;BME280;16044;52.726;-2.108;2023-11-21T12:33:17;101690.59;;;9.68;100.00
28935;BME280;16044;52.726;-2.108;2023-11-21T12:35:50;101693.69;;;9.63;100.00
28935;BME280;16044;52.726;-2.108;2023-11-21T12:38:20;101698.28;;;9.63;100.00
28935;BME280;16044;52.726;-2.108;2023-11-21T12:40:51;101700.97;;;9.63;100.00
28935;BME280;16044;52.726;-2.108;2023-11-21T12:43:22;101699.69;;;9.67;100.00
28935;BME280;16044;52.726;-2.108;2023-11-21T12:46:04;101690.00;;;9.74;100.00
28935;BME280;16044;52.726;-2.108;2023-11-21T12:48:37;101693.28;;;9.78;100.00
28935;BME280;16044;52.726;-2.108;2023-11-21T12:51:12;101691.28;;;9.80;100.00
28935;BME280;16044;52.726;-2.108;2023-11-21T12:53:45;101703.09;;;9.79;100.00
28935;BME280;16044;52.726;-2.108;2023-11-21T12:56:16;101712.25;;;9.78;100.00
28935;BME280;16044;52.726;-2.108;2023-11-21T12:58:47;101721.34;;;9.76;100.00
28935;BME280;16044;52.726;-2.108;2023-11-21T13:01:19;101723.66;;;9.81;100.00
28935;BME280;16044;52.726;-2.108;2023-11-21T13:03:50;101712.53;;;9.84;100.00
28935;BME280;16044;52.726;-2.108;2023-11-21T13:06:23;101712.69;;;9.92;100.00
28935;BME280;16044;52.726;-2.108;2023-11-21T13:08:54;101711.41;;;9.97;100.00
28935;BME280;16044;52.726;-2.108;2023-11-21T13:11:26;101714.38;;;9.93;100.00